createdAt,value
2018-04-19T00:02:05.619Z,91.70
2018-04-19T00:04:34.659Z,91.90
2018-04-19T00:07:02.898Z,91.90
2018-04-19T00:09:37.636Z,92.50
2018-04-19T00:12:05.868Z,92.40
2018-04-19T00:14:34.103Z,92.10
2018-04-19T00:17:02.354Z,92.50
2018-04-19T00:19:30.606Z,92.70
2018-04-19T00:21:59.671Z,93.10
2018-04-19T00:24:27.911Z,93.00
2018-04-19T00:26:56.167Z,92.60
2018-04-19T00:29:24.395Z,92.70
2018-04-19T00:31:52.656Z,92.50
2018-04-19T00:34:26.575Z,92.40
2018-04-19T00:36:54.800Z,92.20
2018-04-19T00:39:23.036Z,92.30
2018-04-19T00:41:51.288Z,92.70
2018-04-19T00:44:19.533Z,92.90
2018-04-19T00:46:47.793Z,92.60
2018-04-19T00:49:16.028Z,92.80
2018-04-19T00:51:44.283Z,93.50
2018-04-19T00:54:12.538Z,93.20
2018-04-19T00:56:41.166Z,93.00
2018-04-19T00:59:09.383Z,92.90
2018-04-19T01:01:37.642Z,92.60
2018-04-19T01:04:05.875Z,92.30
2018-04-19T01:06:34.113Z,92.20
2018-04-19T01:09:02.742Z,92.80
2018-04-19T01:11:30.947Z,92.40
2018-04-19T01:13:59.203Z,92.40
2018-04-19T01:16:28.211Z,92.60
2018-04-19T01:18:56.471Z,92.60
2018-04-19T01:21:25.474Z,92.90
2018-04-19T01:23:53.736Z,92.90
2018-04-19T01:26:22.739Z,93.20
2018-04-19T01:28:50.991Z,93.20
2018-04-19T01:31:20.000Z,93.10
2018-04-19T01:33:49.011Z,93.30
2018-04-19T01:36:24.903Z,93.30
2018-04-19T01:38:53.146Z,93.10
2018-04-19T01:41:21.380Z,93.20
2018-04-19T01:43:50.499Z,93.20
2018-04-19T01:46:18.739Z,93.20
2018-04-19T01:48:46.987Z,93.40
2018-04-19T01:51:15.225Z,93.40
2018-04-19T01:53:43.470Z,93.30
2018-04-19T01:56:12.965Z,93.30
2018-04-19T01:58:41.184Z,93.30
2018-04-19T02:01:09.423Z,93.40
2018-04-19T02:03:38.435Z,93.80
2018-04-19T02:06:06.676Z,93.80
2018-04-19T02:08:34.923Z,94.00
2018-04-19T02:11:03.158Z,93.80
2018-04-19T02:13:31.410Z,94.20
2018-04-19T02:16:00.417Z,93.80
2018-04-19T02:18:28.682Z,93.80
2018-04-19T02:20:57.670Z,93.60
2018-04-19T02:23:26.691Z,93.60
2018-04-19T02:25:54.927Z,93.60
2018-04-19T02:28:23.972Z,93.80
2018-04-19T02:30:52.195Z,93.80
2018-04-19T02:33:21.200Z,94.50
2018-04-19T02:35:50.210Z,94.50
2018-04-19T02:38:18.451Z,94.40
2018-04-19T02:40:47.475Z,95.00
2018-04-19T02:43:15.695Z,95.00
2018-04-19T02:45:43.975Z,94.70
2018-04-19T02:48:12.207Z,94.50
2018-04-19T02:50:40.468Z,94.60
2018-04-19T02:53:08.955Z,94.20
2018-04-19T02:55:37.944Z,94.50
2018-04-19T02:58:06.191Z,94.40
2018-04-19T03:00:35.201Z,94.00
2018-04-19T03:03:03.437Z,94.40
2018-04-19T03:05:31.683Z,94.10
2018-04-19T03:07:59.915Z,94.10
2018-04-19T03:10:28.927Z,94.40
2018-04-19T03:12:57.158Z,94.40
2018-04-19T03:15:25.392Z,94.70
2018-04-19T03:17:53.623Z,94.00
2018-04-19T03:20:22.641Z,94.50
2018-04-19T03:22:50.864Z,94.50
2018-04-19T03:25:19.115Z,94.60
2018-04-19T03:27:47.348Z,94.70
2018-04-19T03:30:15.584Z,94.60
2018-04-19T03:32:43.816Z,95.00
2018-04-19T03:35:12.057Z,94.80
2018-04-19T03:37:41.057Z,94.80
2018-04-19T03:40:10.063Z,94.50
2018-04-19T03:42:38.293Z,94.40
2018-04-19T03:45:06.541Z,94.30
2018-04-19T03:47:34.767Z,94.70
2018-04-19T03:50:03.789Z,94.90
2018-04-19T03:52:32.018Z,94.90
2018-04-19T03:55:01.028Z,94.80
2018-04-19T03:57:29.251Z,94.70
2018-04-19T03:59:58.271Z,94.50
2018-04-19T04:02:26.506Z,94.50
2018-04-19T04:04:54.746Z,94.60
2018-04-19T04:07:22.980Z,95.10
2018-04-19T04:09:51.678Z,94.40
2018-04-19T04:12:19.883Z,94.40
2018-04-19T04:14:48.111Z,94.50
2018-04-19T04:17:28.251Z,94.70
2018-04-19T04:20:04.472Z,94.60
2018-04-19T04:25:33.379Z,94.50
2018-04-19T04:28:01.610Z,94.70
2018-04-19T04:30:29.853Z,94.70
2018-04-19T04:32:58.083Z,94.50
2018-04-19T04:35:27.091Z,94.60
2018-04-19T04:37:55.331Z,94.60
2018-04-19T04:40:24.339Z,94.80
2018-04-19T04:42:52.579Z,94.70
2018-04-19T04:45:20.831Z,94.50
2018-04-19T04:47:49.165Z,94.30
2018-04-19T04:50:17.364Z,94.20
2018-04-19T04:52:45.598Z,94.50
2018-04-19T04:55:14.610Z,95.40
2018-04-19T04:57:42.848Z,95.30
2018-04-19T05:00:11.132Z,95.00
2018-04-19T05:02:39.334Z,95.00
2018-04-19T05:05:07.562Z,94.80
2018-04-19T05:07:35.799Z,94.60
2018-04-19T05:10:04.031Z,94.60
2018-04-19T05:12:33.039Z,94.60
2018-04-19T05:15:01.270Z,94.60
2018-04-19T05:17:29.519Z,94.60
2018-04-19T05:19:57.760Z,94.80
2018-04-19T05:22:26.008Z,95.00
2018-04-19T05:24:54.230Z,95.20
2018-04-19T05:27:22.479Z,96.00
2018-04-19T05:29:50.718Z,95.80
2018-04-19T05:32:18.986Z,95.50
2018-04-19T05:34:47.211Z,95.40
2018-04-19T05:37:15.479Z,95.60
2018-04-19T05:39:44.466Z,96.20
2018-04-19T05:42:13.488Z,95.70
2018-04-19T05:44:41.714Z,95.70
2018-04-19T05:47:10.728Z,96.80
2018-04-19T05:49:38.973Z,96.80
2018-04-19T05:52:07.376Z,96.80
2018-04-19T05:54:35.590Z,97.00
2018-04-19T05:57:03.847Z,96.80
2018-04-19T05:59:32.481Z,97.00
2018-04-19T06:02:00.706Z,97.00
2018-04-19T06:04:28.952Z,96.80
2018-04-19T06:06:57.968Z,96.60
2018-04-19T06:09:26.202Z,96.60
2018-04-19T06:11:55.215Z,95.60
2018-04-19T06:14:23.461Z,95.60
2018-04-19T06:16:51.710Z,95.50
2018-04-19T06:19:19.949Z,95.50
2018-04-19T06:21:48.215Z,95.00
2018-04-19T06:24:16.453Z,94.30
2018-04-19T06:26:44.703Z,94.00
2018-04-19T06:29:12.944Z,93.60
2018-04-19T06:31:41.199Z,92.60
2018-04-19T06:34:10.199Z,91.70
2018-04-19T06:36:38.852Z,91.60
2018-04-19T06:39:08.821Z,90.90
2018-04-19T06:41:38.156Z,90.10
2018-04-19T06:44:06.364Z,90.20
2018-04-19T06:46:34.621Z,88.40
2018-04-19T06:49:03.624Z,85.20
2018-04-19T06:51:32.639Z,84.40
2018-04-19T06:54:00.880Z,84.20
2018-04-19T06:56:29.897Z,83.10
2018-04-19T06:58:58.140Z,83.80
2018-04-19T07:01:26.400Z,81.80
2018-04-19T07:03:54.637Z,82.20
2018-04-19T07:06:22.995Z,81.10
2018-04-19T07:08:51.242Z,80.20
2018-04-19T07:11:20.244Z,80.10
2018-04-19T07:13:49.268Z,79.60
2018-04-19T07:16:17.509Z,79.60
2018-04-19T07:18:46.588Z,75.70
2018-04-19T07:21:17.707Z,75.30
2018-04-19T07:23:46.011Z,75.20
2018-04-19T07:26:15.016Z,72.80
2018-04-19T07:28:44.048Z,72.00
2018-04-19T07:31:12.291Z,71.90
2018-04-19T07:33:40.574Z,72.20
2018-04-19T07:36:08.831Z,71.30
2018-04-19T07:38:37.091Z,72.80
2018-04-19T07:41:06.103Z,72.90
2018-04-19T07:43:34.384Z,72.80
2018-04-19T07:46:02.636Z,65.40
2018-04-19T07:48:30.859Z,68.20
2018-04-19T07:50:59.127Z,66.00
2018-04-19T07:53:27.374Z,63.10
2018-04-19T07:55:55.617Z,64.20
2018-04-19T07:58:23.871Z,61.00
2018-04-19T08:00:52.898Z,63.20
2018-04-19T08:03:21.903Z,59.80
2018-04-19T08:05:50.164Z,59.80
2018-04-19T08:08:19.170Z,59.20
2018-04-19T08:10:47.427Z,59.00
2018-04-19T08:13:16.435Z,61.90
2018-04-19T08:15:44.693Z,61.90
2018-04-19T08:18:13.700Z,56.50
2018-04-19T08:20:42.737Z,54.80
2018-04-19T08:23:10.960Z,54.80
2018-04-19T08:25:39.968Z,51.60
2018-04-19T08:28:08.233Z,51.50
2018-04-19T08:30:37.234Z,53.90
2018-04-19T08:33:05.892Z,53.60
2018-04-19T08:35:34.904Z,51.10
2018-04-19T08:38:03.146Z,51.00
2018-04-19T08:40:31.387Z,48.70
2018-04-19T08:42:59.618Z,50.00
2018-04-19T08:45:27.868Z,48.70
2018-04-19T08:47:56.104Z,48.10
2018-04-19T08:50:24.358Z,48.40
2018-04-19T08:52:52.600Z,48.90
2018-04-19T08:55:21.603Z,46.50
2018-04-19T08:57:50.619Z,46.40
2018-04-19T09:00:18.857Z,46.40
2018-04-19T09:02:47.907Z,47.20
2018-04-19T09:05:16.102Z,47.30
2018-04-19T09:07:44.359Z,46.30
2018-04-19T09:10:12.600Z,43.90
2018-04-19T09:12:40.848Z,49.00
2018-04-19T09:15:09.846Z,46.10
2018-04-19T09:17:38.863Z,45.50
2018-04-19T09:20:07.102Z,45.50
2018-04-19T09:22:36.119Z,47.70
2018-04-19T09:25:04.358Z,47.70
2018-04-19T09:27:32.607Z,49.30
2018-04-19T09:30:00.896Z,44.60
2018-04-19T09:32:29.150Z,41.80
2018-04-19T09:34:57.389Z,45.20
2018-04-19T09:37:25.638Z,45.10
2018-04-19T09:39:54.654Z,42.40
2018-04-19T09:42:22.895Z,42.30
2018-04-19T09:44:51.136Z,38.90
2018-04-19T09:47:19.391Z,42.60
2018-04-19T09:49:47.625Z,40.90
2018-04-19T09:52:16.653Z,40.30
2018-04-19T09:54:44.878Z,40.20
2018-04-19T09:57:13.183Z,40.80
2018-04-19T09:59:41.456Z,39.10
2018-04-19T10:02:10.507Z,42.70
2018-04-19T10:04:38.793Z,42.70
2018-04-19T10:07:07.084Z,39.40
2018-04-19T10:09:36.127Z,38.50
2018-04-19T10:12:04.404Z,38.50
2018-04-19T10:14:32.681Z,39.80
2018-04-19T10:17:00.967Z,39.30
2018-04-19T10:19:29.231Z,39.10
2018-04-19T10:21:57.523Z,40.60
2018-04-19T10:24:25.794Z,38.70
2018-04-19T10:26:54.069Z,36.70
2018-04-19T10:29:22.338Z,37.60
2018-04-19T10:31:50.628Z,38.60
2018-04-19T10:34:18.937Z,37.90
2018-04-19T10:36:47.177Z,38.00
2018-04-19T10:39:15.443Z,40.40
2018-04-19T10:41:43.723Z,35.90
2018-04-19T10:44:11.983Z,36.70
2018-04-19T10:46:40.268Z,35.50
2018-04-19T10:49:08.533Z,40.30
2018-04-19T10:51:36.791Z,34.50
2018-04-19T10:54:05.082Z,36.80
2018-04-19T10:56:33.338Z,35.70
2018-04-19T10:59:01.623Z,36.10
2018-04-19T11:01:29.891Z,40.30
2018-04-19T11:03:58.179Z,41.00
2018-04-19T11:06:26.448Z,42.30
2018-04-19T11:08:54.751Z,41.70
2018-04-19T11:11:23.020Z,42.40
2018-04-19T11:13:51.363Z,41.70
2018-04-19T11:16:20.373Z,43.30
2018-04-19T11:18:48.659Z,43.30
2018-04-19T11:21:16.931Z,41.00
2018-04-19T11:23:45.217Z,43.40
2018-04-19T11:26:13.490Z,43.70
2018-04-19T11:28:41.782Z,44.10
2018-04-19T11:31:10.822Z,42.70
2018-04-19T11:33:39.110Z,42.70
2018-04-19T11:36:07.383Z,44.10
2018-04-19T11:38:35.676Z,42.10
2018-04-19T11:41:03.957Z,43.30
2018-04-19T11:43:32.242Z,44.60
2018-04-19T11:46:00.515Z,45.60
2018-04-19T11:48:28.799Z,41.70
2018-04-19T11:50:57.840Z,43.90
2018-04-19T11:53:26.131Z,43.90
2018-04-19T11:55:54.395Z,43.00
2018-04-19T11:58:22.684Z,41.90
2018-04-19T12:00:50.958Z,41.90
2018-04-19T12:03:19.252Z,43.30
2018-04-19T12:05:47.519Z,42.40
2018-04-19T12:08:15.806Z,41.00
2018-04-19T12:10:44.079Z,40.10
2018-04-19T12:13:12.363Z,42.80
2018-04-19T12:15:41.412Z,39.60
2018-04-19T12:18:09.695Z,39.60
2018-04-19T12:20:37.966Z,42.40
2018-04-19T12:23:06.275Z,39.60
2018-04-19T12:25:34.551Z,39.80
2018-04-19T12:28:02.835Z,42.70
2018-04-19T12:30:31.873Z,41.20
2018-04-19T12:33:00.160Z,41.10
2018-04-19T12:35:28.437Z,42.60
2018-04-19T12:37:56.715Z,41.90
2018-04-19T12:40:25.248Z,42.90
2018-04-19T12:42:54.332Z,43.70
2018-04-19T12:45:23.377Z,46.30
2018-04-19T12:47:51.660Z,46.40
2018-04-19T12:50:19.931Z,44.30
2018-04-19T12:52:48.212Z,47.20
2018-04-19T12:55:16.517Z,44.60
2018-04-19T12:57:45.551Z,43.70
2018-04-19T13:00:13.834Z,43.60
2018-04-19T13:02:42.102Z,43.60
2018-04-19T13:05:10.393Z,45.30
2018-04-19T13:07:38.663Z,43.90
2018-04-19T13:10:06.950Z,43.40
2018-04-19T13:12:35.219Z,44.70
2018-04-19T13:15:03.506Z,45.60
2018-04-19T13:17:31.788Z,46.00
2018-04-19T13:20:00.073Z,47.10
2018-04-19T13:22:28.344Z,46.70
2018-04-19T13:24:56.642Z,45.40
2018-04-19T13:27:25.677Z,46.80
2018-04-19T13:29:53.971Z,46.70
2018-04-19T13:32:22.253Z,44.10
2018-04-19T13:34:50.539Z,44.50
2018-04-19T13:37:18.808Z,45.70
2018-04-19T13:39:47.126Z,47.30
2018-04-19T13:42:16.137Z,43.50
2018-04-19T13:44:44.418Z,43.40
2018-04-19T13:47:12.682Z,42.60
2018-04-19T13:49:40.975Z,42.00
2018-04-19T13:52:09.256Z,45.30
2018-04-19T13:54:37.604Z,47.30
2018-04-19T13:57:05.870Z,44.20
2018-04-19T13:59:34.157Z,44.90
2018-04-19T14:02:02.478Z,43.70
2018-04-19T14:04:30.707Z,41.60
2018-04-19T14:06:58.979Z,41.70
2018-04-19T14:09:27.257Z,40.40
2018-04-19T14:11:55.523Z,39.20
2018-04-19T14:14:23.811Z,40.30
2018-04-19T14:16:52.072Z,42.70
2018-04-19T14:19:20.354Z,40.90
2018-04-19T14:21:48.636Z,41.80
2018-04-19T14:24:16.923Z,41.10
2018-04-19T14:26:45.192Z,41.80
2018-04-19T14:29:13.475Z,40.30
2018-04-19T14:31:42.511Z,41.00
2018-04-19T14:34:11.563Z,43.10
2018-04-19T14:36:39.949Z,43.10
2018-04-19T14:39:08.254Z,42.50
2018-04-19T14:41:37.284Z,43.00
2018-04-19T14:44:05.601Z,42.90
2018-04-19T14:46:33.878Z,42.10
2018-04-19T14:49:02.187Z,40.90
2018-04-19T14:51:30.454Z,42.00
2018-04-19T14:53:58.739Z,44.60
2018-04-19T14:56:27.027Z,41.60
2018-04-19T14:58:55.307Z,43.90
2018-04-19T15:01:23.588Z,41.20
2018-04-19T15:03:51.855Z,38.50
2018-04-19T15:06:22.022Z,40.40
2018-04-19T15:08:50.284Z,43.50
2018-04-19T15:11:18.582Z,40.60
2018-04-19T15:13:47.615Z,39.70
2018-04-19T15:16:15.897Z,39.70
2018-04-19T15:18:44.158Z,40.20
2018-04-19T15:21:12.439Z,38.80
2018-04-19T15:23:40.704Z,38.10
2018-04-19T15:26:08.978Z,39.10
2018-04-19T15:28:37.244Z,40.20
2018-04-19T15:31:05.523Z,41.60
2018-04-19T15:33:33.791Z,40.50
2018-04-19T15:36:02.071Z,41.50
2018-04-19T15:38:30.354Z,43.20
2018-04-19T15:40:58.636Z,42.00
2018-04-19T15:43:26.914Z,45.90
2018-04-19T15:45:55.197Z,42.80
2018-04-19T15:48:23.472Z,45.00
2018-04-19T15:50:51.755Z,45.60
2018-04-19T15:53:20.032Z,46.00
2018-04-19T15:55:48.353Z,47.10
2018-04-19T15:58:17.389Z,45.50
2018-04-19T16:00:45.688Z,45.50
2018-04-19T16:03:13.962Z,47.50
2018-04-19T16:05:42.247Z,48.00
2018-04-19T16:08:10.522Z,49.10
2018-04-19T16:10:38.804Z,48.20
2018-04-19T16:13:07.078Z,48.40
2018-04-19T16:15:35.372Z,48.80
2018-04-19T16:18:04.416Z,49.30
2018-04-19T16:20:32.709Z,49.30
2018-04-19T16:23:00.976Z,50.50
2018-04-19T16:25:29.264Z,49.80
2018-04-19T16:27:57.537Z,50.60
2018-04-19T16:30:25.819Z,51.70
2018-04-19T16:32:54.871Z,52.40
2018-04-19T16:35:23.155Z,52.30
2018-04-19T16:37:51.448Z,52.70
2018-04-19T16:40:19.739Z,53.70
2018-04-19T16:42:48.768Z,54.50
2018-04-19T16:45:17.062Z,54.50
2018-04-19T16:47:45.332Z,55.10
2018-04-19T16:50:13.630Z,54.90
2018-04-19T16:52:41.892Z,53.60
2018-04-19T16:55:10.177Z,54.50
2018-04-19T16:57:38.465Z,54.30
2018-04-19T17:00:06.738Z,55.40
2018-04-19T17:02:35.023Z,55.90
2018-04-19T17:05:03.304Z,55.90
2018-04-19T17:07:32.355Z,57.40
2018-04-19T17:10:00.623Z,57.40
2018-04-19T17:12:28.911Z,55.80
2018-04-19T17:14:57.184Z,57.50
2018-04-19T17:17:25.479Z,57.00
2018-04-19T17:19:53.745Z,56.70
2018-04-19T17:22:22.063Z,56.10
2018-04-19T17:24:50.343Z,55.30
2018-04-19T17:27:19.390Z,54.70
2018-04-19T17:29:47.673Z,54.70
2018-04-19T17:32:15.954Z,53.50
2018-04-19T17:34:44.224Z,51.40
2018-04-19T17:37:12.507Z,53.30
2018-04-19T17:39:40.782Z,52.50
2018-04-19T17:42:09.073Z,50.50
2018-04-19T17:44:38.108Z,50.20
2018-04-19T17:47:06.401Z,50.10
2018-04-19T17:49:35.449Z,52.00
2018-04-19T17:52:03.759Z,52.00
2018-04-19T17:54:32.048Z,53.00
2018-04-19T17:57:00.351Z,53.50
2018-04-19T17:59:29.403Z,55.60
2018-04-19T18:01:57.752Z,55.40
2018-04-19T18:04:26.218Z,56.40
2018-04-19T18:06:54.522Z,56.40
2018-04-19T18:09:22.783Z,57.60
2018-04-19T18:11:51.170Z,58.10
2018-04-19T18:14:19.443Z,58.60
2018-04-19T18:16:47.723Z,58.80
2018-04-19T18:19:15.990Z,58.70
2018-04-19T18:21:44.298Z,59.50
2018-04-19T18:24:12.575Z,59.90
2018-04-19T18:26:40.856Z,60.20
2018-04-19T18:29:09.130Z,60.30
2018-04-19T18:31:37.417Z,61.10
2018-04-19T18:34:05.729Z,61.20
2018-04-19T18:36:34.017Z,62.20
2018-04-19T18:39:02.287Z,62.50
2018-04-19T18:41:30.575Z,63.00
2018-04-19T18:43:58.843Z,63.60
2018-04-19T18:46:27.127Z,64.00
2018-04-19T18:48:55.415Z,64.30
2018-04-19T18:51:23.716Z,64.80
2018-04-19T18:53:51.979Z,65.00
2018-04-19T18:56:20.260Z,65.10
2018-04-19T18:58:48.562Z,65.30
2018-04-19T19:01:16.844Z,66.20
2018-04-19T19:03:45.135Z,65.80
2018-04-19T19:06:13.403Z,65.90
2018-04-19T19:08:41.690Z,66.30
2018-04-19T19:11:09.963Z,67.00
2018-04-19T19:13:38.243Z,66.90
2018-04-19T19:16:10.028Z,66.90
2018-04-19T19:18:50.239Z,67.20
2018-04-19T19:21:18.521Z,67.50
2018-04-19T19:23:46.815Z,67.50
2018-04-19T19:26:15.079Z,68.00
2018-04-19T19:28:43.360Z,69.10
2018-04-19T19:31:11.634Z,68.60
2018-04-19T19:33:39.926Z,69.40
2018-04-19T19:36:08.194Z,70.10
2018-04-19T19:38:36.480Z,70.80
2018-04-19T19:41:04.751Z,70.90
2018-04-19T19:43:33.031Z,71.30
2018-04-19T19:46:01.313Z,71.50
2018-04-19T19:48:29.599Z,71.30
2018-04-19T19:50:57.865Z,72.20
2018-04-19T19:53:26.144Z,72.50
2018-04-19T19:55:54.424Z,73.60
2018-04-19T19:58:23.472Z,74.00
2018-04-19T20:00:51.742Z,73.90
2018-04-19T20:03:20.023Z,75.10
2018-04-19T20:05:48.365Z,75.10
2018-04-19T20:08:16.584Z,75.60
2018-04-19T20:10:44.873Z,75.30
2018-04-19T20:13:13.163Z,76.70
2018-04-19T20:15:41.438Z,76.30
2018-04-19T20:18:09.722Z,77.30
2018-04-19T20:20:39.126Z,78.00
2018-04-19T20:23:07.423Z,77.80
2018-04-19T20:25:35.694Z,77.80
2018-04-19T20:28:03.982Z,78.20
2018-04-19T20:30:32.255Z,78.40
2018-04-19T20:33:00.540Z,78.30
2018-04-19T20:35:28.819Z,78.00
2018-04-19T20:37:57.108Z,77.90
2018-04-19T20:40:25.379Z,77.90
2018-04-19T20:42:53.663Z,78.40
2018-04-19T20:45:21.934Z,78.30
2018-04-19T20:47:50.313Z,78.50
2018-04-19T20:50:18.579Z,78.10
2018-04-19T20:52:46.862Z,78.30
2018-04-19T20:55:15.139Z,79.00
2018-04-19T20:57:43.432Z,79.20
2018-04-19T21:00:11.704Z,79.60
2018-04-19T21:02:39.993Z,80.40
2018-04-19T21:05:09.027Z,79.70
2018-04-19T21:07:37.317Z,79.70
2018-04-19T21:10:05.581Z,79.80
2018-04-19T21:12:33.843Z,80.00
2018-04-19T21:15:02.131Z,80.10
2018-04-19T21:17:30.403Z,80.70
2018-04-19T21:19:58.687Z,81.30
2018-04-19T21:22:26.959Z,81.20
2018-04-19T21:24:55.243Z,81.80
2018-04-19T21:27:23.507Z,82.30
2018-04-19T21:29:52.562Z,82.80
2018-04-19T21:32:21.601Z,83.50
2018-04-19T21:34:49.896Z,83.50
2018-04-19T21:37:18.167Z,83.10
2018-04-19T21:39:46.522Z,83.10
2018-04-19T21:42:15.559Z,84.30
2018-04-19T21:44:44.611Z,84.50
2018-04-19T21:47:12.922Z,84.50
2018-04-19T21:49:41.180Z,84.60
2018-04-19T21:52:10.967Z,85.30
2018-04-19T21:54:39.242Z,85.20
2018-04-19T21:57:07.516Z,85.10
2018-04-19T21:59:35.798Z,87.80
2018-04-19T22:02:04.066Z,87.50
2018-04-19T22:04:32.355Z,87.00
2018-04-19T22:07:00.623Z,87.10
2018-04-19T22:09:28.907Z,86.70
2018-04-19T22:11:57.179Z,86.50
2018-04-19T22:14:25.455Z,87.50
2018-04-19T22:16:53.739Z,87.80
2018-04-19T22:19:22.042Z,89.60
2018-04-19T22:21:51.084Z,88.90
2018-04-19T22:24:19.364Z,88.20
2018-04-19T22:26:47.635Z,88.70
2018-04-19T22:29:15.919Z,88.90
2018-04-19T22:31:44.195Z,88.50
2018-04-19T22:34:12.475Z,89.10
2018-04-19T22:36:40.752Z,89.70
2018-04-19T22:39:09.026Z,89.70
2018-04-19T22:41:37.299Z,89.60
2018-04-19T22:44:05.589Z,89.00
2018-04-19T22:46:33.859Z,89.00
2018-04-19T22:49:02.146Z,89.10
2018-04-19T22:51:31.178Z,89.70
2018-04-19T22:53:59.468Z,89.60
2018-04-19T22:56:27.740Z,89.50
2018-04-19T22:58:56.028Z,89.40
2018-04-19T23:01:24.300Z,89.30
2018-04-19T23:03:52.578Z,89.20
2018-04-19T23:06:20.855Z,89.80
2018-04-19T23:08:49.134Z,90.20
2018-04-19T23:11:17.408Z,91.00
2018-04-19T23:13:45.682Z,90.80
2018-04-19T23:16:13.969Z,90.60
2018-04-19T23:18:42.234Z,90.30
2018-04-19T23:21:10.519Z,90.80
2018-04-19T23:23:38.794Z,90.30
2018-04-19T23:26:07.077Z,90.00
2018-04-19T23:28:35.387Z,90.00
2018-04-19T23:31:03.681Z,90.30
2018-04-19T23:33:31.961Z,90.00
2018-04-19T23:36:00.235Z,89.00
2018-04-19T23:38:28.509Z,89.40
2018-04-19T23:40:56.787Z,89.50
2018-04-19T23:43:25.063Z,89.80
2018-04-19T23:45:53.347Z,90.30
2018-04-19T23:48:21.619Z,90.40
2018-04-19T23:50:49.906Z,90.50
2018-04-19T23:53:18.175Z,90.40
2018-04-19T23:55:46.455Z,90.50
2018-04-19T23:58:14.728Z,90.60
